Time;durP1;ratioP1;P1;durP2;ratioP2;P2;SDS_P1;SDS_P2;PMS_P1;PMS_P2;Temp;Humidity;BMP_temperature;BMP_pressure;BME280_temperature;BME280_humidity;BME280_pressure;Samples;Min_cycle;Max_cycle;Signal;HPM_P1;HPM_P2
2023/09/25 00:00:52;;;;;;;13.83;12.93;;;13.30;84.10;;;;;;5004910;28;20288;-70
2023/09/25 00:03:18;;;;;;;17.90;16.70;;;13.30;84.20;;;;;;4990427;28;20038;-71
2023/09/25 00:05:46;;;;;;;19.63;18.47;;;13.20;84.20;;;;;;5002341;28;20307;-71
2023/09/25 00:08:11;;;;;;;15.47;14.53;;;13.20;84.30;;;;;;5002165;28;20026;-71
2023/09/25 00:10:37;;;;;;;15.20;14.47;;;13.20;84.50;;;;;;5008625;28;20342;-71
2023/09/25 00:13:04;;;;;;;12.13;11.33;;;13.20;84.50;;;;;;5004233;28;20243;-71
2023/09/25 00:15:30;;;;;;;12.43;11.47;;;13.10;84.60;;;;;;5001634;28;20513;-71
2023/09/25 00:17:57;;;;;;;16.60;15.60;;;13.10;84.60;;;;;;5008801;28;20300;-71
2023/09/25 00:20:24;;;;;;;14.43;13.50;;;13.10;84.70;;;;;;5007904;28;20284;-71
2023/09/25 00:22:51;;;;;;;14.23;13.43;;;13.00;84.80;;;;;;5005876;28;20339;-71
2023/09/25 00:25:20;;;;;;;12.00;11.17;;;13.00;84.90;;;;;;4981992;28;20295;-71
2023/09/25 00:27:46;;;;;;;15.80;14.60;;;12.90;84.90;;;;;;5009720;28;20291;-71
2023/09/25 00:30:13;;;;;;;11.77;10.77;;;12.90;85.30;;;;;;4993751;28;20655;-71
2023/09/25 00:32:39;;;;;;;13.93;12.93;;;12.80;85.40;;;;;;5007100;28;20376;-71
2023/09/25 00:35:10;;;;;;;16.30;14.90;;;12.80;85.40;;;;;;5004995;28;20440;-71
2023/09/25 00:37:37;;;;;;;11.13;10.43;;;12.80;85.40;;;;;;5025569;28;20050;-70
2023/09/25 00:40:21;;;;;;;17.83;16.73;;;12.70;85.50;;;;;;5010278;28;20789;-70
2023/09/25 00:42:55;;;;;;;14.67;13.77;;;12.70;85.60;;;;;;5012444;28;20399;-70
2023/09/25 00:45:22;;;;;;;15.98;14.88;;;12.70;85.70;;;;;;4996532;28;20693;-70
2023/09/25 00:47:50;;;;;;;12.47;11.33;;;12.70;86.10;;;;;;5002782;28;20034;-70
2023/09/25 00:50:17;;;;;;;10.63;9.87;;;12.60;86.20;;;;;;5012445;28;20276;-70
2023/09/25 00:52:44;;;;;;;15.03;14.03;;;12.60;86.00;;;;;;5012988;28;20291;-70
2023/09/25 00:55:12;;;;;;;15.57;14.60;;;12.60;86.10;;;;;;4992131;28;20289;-70
2023/09/25 00:57:38;;;;;;;14.83;13.93;;;12.60;86.10;;;;;;5014982;28;20323;-70
2023/09/25 01:00:05;;;;;;;11.13;10.43;;;12.50;86.00;;;;;;4985401;28;20293;-70
2023/09/25 01:02:31;;;;;;;10.93;9.93;;;12.50;86.10;;;;;;5005648;28;20041;-70
2023/09/25 01:05:02;;;;;;;9.83;9.07;;;12.50;86.10;;;;;;5001405;28;20431;-70
2023/09/25 01:07:29;;;;;;;12.53;11.67;;;12.40;86.20;;;;;;4984166;28;20053;-71
2023/09/25 01:10:07;;;;;;;19.80;18.63;;;12.40;86.30;;;;;;5021169;28;20756;-71
2023/09/25 01:12:33;;;;;;;13.13;12.07;;;12.30;86.60;;;;;;5009653;28;20323;-71
2023/09/25 01:14:58;;;;;;;15.17;14.10;;;12.30;86.50;;;;;;5005206;28;20300;-71
2023/09/25 01:17:24;;;;;;;13.53;12.73;;;12.30;86.50;;;;;;4988464;28;20295;-71
2023/09/25 01:19:50;;;;;;;15.70;14.70;;;12.20;86.70;;;;;;4981105;28;20161;-71
2023/09/25 01:22:16;;;;;;;13.73;12.73;;;12.20;86.90;;;;;;5018374;28;20053;-71
2023/09/25 01:24:41;;;;;;;10.47;9.47;;;12.20;86.60;;;;;;5005265;28;20041;-71
2023/09/25 01:27:07;;;;;;;23.10;21.80;;;12.20;86.80;;;;;;5002851;28;20046;-71
2023/09/25 01:29:33;;;;;;;12.07;10.97;;;12.10;87.00;;;;;;5021378;28;20049;-71
2023/09/25 01:31:58;;;;;;;13.30;12.40;;;12.20;87.00;;;;;;5019050;28;20052;-71
2023/09/25 01:34:24;;;;;;;12.73;11.63;;;12.20;86.90;;;;;;5014207;28;20132;-71
2023/09/25 01:36:50;;;;;;;10.67;9.90;;;12.10;87.00;;;;;;5005851;28;20050;-71
2023/09/25 01:39:16;;;;;;;14.00;12.90;;;12.10;87.00;;;;;;4988587;28;20149;-71
2023/09/25 01:41:42;;;;;;;9.63;8.63;;;12.10;87.10;;;;;;5008938;28;20372;-71
2023/09/25 01:44:07;;;;;;;25.53;23.90;;;12.10;86.90;;;;;;5008449;28;20387;-71
2023/09/25 01:46:33;;;;;;;10.97;10.13;;;12.10;86.80;;;;;;5017137;28;20049;-71
2023/09/25 01:48:59;;;;;;;14.43;13.40;;;12.00;86.90;;;;;;5012225;28;20038;-71
2023/09/25 01:51:25;;;;;;;13.17;12.07;;;12.00;86.90;;;;;;5013944;28;20968;-71
2023/09/25 01:53:51;;;;;;;13.33;12.20;;;12.00;86.90;;;;;;5017930;28;20045;-71
2023/09/25 01:56:17;;;;;;;15.17;14.17;;;12.00;87.00;;;;;;4994503;28;20038;-71
2023/09/25 01:58:44;;;;;;;14.10;13.00;;;12.00;87.10;;;;;;5016071;28;20284;-71
2023/09/25 02:01:10;;;;;;;15.20;14.30;;;11.90;87.10;;;;;;5022087;28;20077;-71
2023/09/25 02:03:36;;;;;;;14.77;13.87;;;11.90;87.30;;;;;;5001020;28;20332;-71
2023/09/25 02:06:03;;;;;;;18.43;17.30;;;11.90;87.50;;;;;;5010306;28;20062;-71
2023/09/25 02:08:29;;;;;;;13.00;12.17;;;11.90;87.80;;;;;;5003441;28;20293;-71
2023/09/25 02:10:55;;;;;;;18.17;16.87;;;11.90;87.60;;;;;;5011486;28;20292;-71
2023/09/25 02:13:21;;;;;;;11.80;10.70;;;11.90;87.50;;;;;;5012591;28;20364;-71
2023/09/25 02:15:47;;;;;;;11.87;10.93;;;11.90;87.50;;;;;;4990547;28;20384;-71
2023/09/25 02:18:13;;;;;;;12.07;11.37;;;11.90;87.50;;;;;;5007197;28;20042;-71
2023/09/25 02:20:39;;;;;;;12.90;11.80;;;11.90;87.70;;;;;;5014895;28;20288;-71
2023/09/25 02:23:05;;;;;;;13.77;12.77;;;11.90;87.50;;;;;;5019728;28;20041;-71
2023/09/25 02:25:31;;;;;;;11.80;10.90;;;11.90;87.50;;;;;;5010237;28;20300;-71
2023/09/25 02:27:57;;;;;;;14.13;13.23;;;11.80;87.50;;;;;;5026078;28;20034;-71
2023/09/25 02:30:23;;;;;;;11.20;10.23;;;11.80;87.50;;;;;;5002190;28;20351;-71
2023/09/25 02:32:48;;;;;;;14.20;13.20;;;11.80;87.60;;;;;;5004268;28;20104;-71
2023/09/25 02:35:14;;;;;;;16.73;15.40;;;11.70;87.70;;;;;;4995509;28;20049;-71
2023/09/25 02:37:40;;;;;;;18.60;17.50;;;11.70;87.70;;;;;;5009880;28;20045;-71
2023/09/25 02:40:13;;;;;;;53.00;50.03;;;11.70;87.80;;;;;;5004010;28;20045;-71
2023/09/25 02:42:40;;;;;;;14.03;12.83;;;11.70;88.40;;;;;;5023532;28;20319;-71
2023/09/25 02:45:06;;;;;;;12.37;11.37;;;11.70;88.10;;;;;;5011320;28;20293;-71
2023/09/25 02:47:32;;;;;;;12.50;11.50;;;11.70;87.90;;;;;;5013039;28;20811;-71
2023/09/25 02:49:58;;;;;;;18.43;17.17;;;11.60;88.00;;;;;;4999186;28;20287;-71
2023/09/25 02:52:23;;;;;;;15.07;13.97;;;11.60;88.30;;;;;;5008405;28;20289;-71
2023/09/25 02:54:49;;;;;;;16.17;15.10;;;11.60;88.10;;;;;;5002597;28;20081;-71
2023/09/25 02:57:15;;;;;;;13.57;12.57;;;11.60;88.40;;;;;;5003221;28;20429;-71
2023/09/25 02:59:40;;;;;;;12.17;11.27;;;11.50;88.20;;;;;;5011830;28;20034;-71
2023/09/25 03:02:06;;;;;;;14.30;13.30;;;11.50;88.40;;;;;;5002388;28;20045;-71
2023/09/25 03:04:32;;;;;;;14.90;13.57;;;11.50;88.30;;;;;;5009132;28;20140;-71
2023/09/25 03:06:58;;;;;;;13.30;12.37;;;11.50;88.50;;;;;;5014190;28;20516;-71
2023/09/25 03:09:24;;;;;;;17.00;15.83;;;11.40;88.30;;;;;;5010770;28;20297;-71
2023/09/25 03:11:50;;;;;;;15.27;14.00;;;11.40;88.40;;;;;;4993496;28;20383;-71
2023/09/25 03:14:16;;;;;;;14.83;13.83;;;11.40;88.50;;;;;;5001777;28;20373;-71
2023/09/25 03:16:42;;;;;;;18.43;17.33;;;11.40;88.40;;;;;;5001572;28;20359;-71
2023/09/25 03:19:08;;;;;;;14.47;13.53;;;11.40;88.70;;;;;;5002195;28;20689;-71
2023/09/25 03:21:34;;;;;;;28.53;26.83;;;11.40;88.70;;;;;;4993401;28;20042;-71
2023/09/25 03:24:00;;;;;;;13.57;12.70;;;11.40;88.70;;;;;;5011176;28;20300;-71
2023/09/25 03:26:26;;;;;;;14.47;13.47;;;11.40;88.60;;;;;;5007807;28;20046;-71
2023/09/25 03:28:52;;;;;;;26.50;24.93;;;11.50;88.40;;;;;;5002997;28;20046;-71
2023/09/25 03:31:18;;;;;;;14.73;13.73;;;11.50;88.40;;;;;;5009987;28;20126;-71
2023/09/25 03:33:48;;;;;;;15.33;14.17;;;11.50;88.20;;;;;;5007948;28;20726;-71
2023/09/25 03:36:14;;;;;;;13.63;12.40;;;11.50;88.20;;;;;;5017142;28;20533;-71
2023/09/25 03:38:39;;;;;;;15.07;13.97;;;11.50;88.20;;;;;;5010683;28;20372;-71
2023/09/25 03:41:05;;;;;;;16.13;14.83;;;11.50;88.20;;;;;;5005979;28;20041;-71
2023/09/25 03:43:31;;;;;;;12.63;11.50;;;11.50;88.10;;;;;;5000661;28;20034;-71
2023/09/25 03:45:57;;;;;;;15.03;14.03;;;11.50;88.10;;;;;;4993892;28;20502;-71
2023/09/25 03:48:23;;;;;;;18.60;17.40;;;11.50;88.20;;;;;;5008349;28;20444;-71
2023/09/25 03:50:49;;;;;;;15.27;14.30;;;11.50;88.20;;;;;;4998573;28;20285;-71
2023/09/25 03:53:15;;;;;;;35.00;32.77;;;11.50;88.00;;;;;;5000638;28;20042;-71
2023/09/25 03:55:42;;;;;;;16.33;15.17;;;11.50;88.00;;;;;;4998355;28;20309;-71
2023/09/25 03:58:07;;;;;;;14.47;13.47;;;11.50;88.10;;;;;;5003379;28;20951;-71
2023/09/25 04:00:33;;;;;;;13.83;12.73;;;11.50;88.00;;;;;;5009932;28;20298;-71
2023/09/25 04:02:59;;;;;;;15.10;14.13;;;11.50;88.00;;;;;;4996660;28;20042;-71
2023/09/25 04:05:25;;;;;;;12.77;11.57;;;11.50;88.00;;;;;;5014617;28;20145;-71
2023/09/25 04:07:50;;;;;;;14.03;13.03;;;11.50;88.00;;;;;;5001182;28;20068;-71
2023/09/25 04:10:17;;;;;;;14.13;13.23;;;11.50;87.90;;;;;;5007400;28;20746;-71
2023/09/25 04:12:43;;;;;;;15.17;14.07;;;11.50;88.00;;;;;;4990428;28;20073;-71
2023/09/25 04:15:16;;;;;;;15.17;14.17;;;11.50;88.10;;;;;;4995380;28;20335;-71
2023/09/25 04:17:42;;;;;;;11.77;10.97;;;11.50;88.10;;;;;;4998570;28;20120;-71
2023/09/25 04:20:15;;;;;;;15.10;14.07;;;11.50;88.10;;;;;;5018299;28;20288;-71
2023/09/25 04:22:41;;;;;;;15.30;14.10;;;11.50;88.00;;;;;;4996434;28;20383;-71
2023/09/25 04:25:10;;;;;;;17.60;16.60;;;11.50;88.10;;;;;;5014408;28;20669;-71
2023/09/25 04:27:36;;;;;;;17.80;16.80;;;11.50;88.30;;;;;;5000150;28;20280;-71
2023/09/25 04:30:03;;;;;;;20.43;19.27;;;11.40;88.40;;;;;;4998214;28;20285;-71
2023/09/25 04:32:29;;;;;;;24.93;23.57;;;11.40;88.60;;;;;;4989206;28;20293;-71
2023/09/25 04:34:55;;;;;;;40.37;38.13;;;11.40;88.50;;;;;;5004060;28;20387;-71
2023/09/25 04:37:20;;;;;;;16.70;15.60;;;11.40;88.50;;;;;;5008297;28;20085;-71
2023/09/25 04:39:46;;;;;;;47.47;45.27;;;11.40;88.50;;;;;;5005487;28;20049;-71
2023/09/25 04:42:12;;;;;;;28.87;27.20;;;11.40;88.50;;;;;;4978609;28;20038;-71
2023/09/25 04:44:40;;;;;;;28.67;27.17;;;11.40;88.30;;;;;;4991078;28;20713;-71
2023/09/25 04:47:06;;;;;;;36.90;35.03;;;11.40;88.50;;;;;;5021475;28;20046;-71
2023/09/25 04:49:32;;;;;;;36.20;34.47;;;11.30;88.70;;;;;;5007439;28;20613;-71
2023/09/25 04:51:58;;;;;;;38.77;36.57;;;11.30;88.90;;;;;;5000304;28;20088;-71
2023/09/25 04:54:24;;;;;;;36.30;34.60;;;11.40;89.10;;;;;;5004896;28;20057;-71
2023/09/25 04:56:49;;;;;;;44.90;42.70;;;11.40;88.90;;;;;;5012926;28;20588;-71
2023/09/25 04:59:15;;;;;;;46.33;44.13;;;11.40;89.00;;;;;;5007914;28;20397;-71
2023/09/25 05:01:41;;;;;;;41.10;39.20;;;11.40;89.00;;;;;;5002930;28;20368;-72
2023/09/25 05:04:07;;;;;;;44.20;42.03;;;11.30;89.00;;;;;;5002435;28;20042;-71
2023/09/25 05:06:33;;;;;;;52.77;50.03;;;11.30;88.90;;;;;;5007779;28;20058;-71
2023/09/25 05:08:59;;;;;;;59.87;55.60;;;11.30;89.20;;;;;;5006238;28;20288;-71
2023/09/25 05:11:24;;;;;;;36.50;34.87;;;11.30;89.10;;;;;;5011085;28;20935;-71
2023/09/25 05:13:50;;;;;;;65.80;62.67;;;11.30;89.00;;;;;;5009714;28;20076;-71
2023/09/25 05:16:16;;;;;;;56.83;54.27;;;11.30;89.10;;;;;;5010323;28;20052;-71
2023/09/25 05:18:43;;;;;;;68.83;65.80;;;11.30;89.40;;;;;;5011225;28;20042;-71
2023/09/25 05:21:08;;;;;;;85.47;81.67;;;11.30;89.40;;;;;;5024775;28;20608;-71
2023/09/25 05:23:34;;;;;;;87.90;83.97;;;11.40;89.20;;;;;;4989366;28;20428;-71
2023/09/25 05:26:00;;;;;;;80.60;76.83;;;11.40;89.20;;;;;;5010190;28;20053;-71
2023/09/25 05:28:26;;;;;;;79.67;76.03;;;11.40;89.10;;;;;;5010239;28;20281;-71
2023/09/25 05:30:56;;;;;;;73.07;70.00;;;11.40;89.00;;;;;;4990021;28;20278;-71
2023/09/25 05:33:22;;;;;;;77.80;74.37;;;11.40;89.00;;;;;;5007641;28;20509;-71
2023/09/25 05:35:48;;;;;;;66.97;63.90;;;11.40;89.00;;;;;;5009622;28;20279;-71
2023/09/25 05:38:14;;;;;;;71.33;68.37;;;11.40;89.00;;;;;;5008226;28;20282;-70
2023/09/25 05:40:40;;;;;;;70.87;67.67;;;11.50;88.90;;;;;;5008461;28;20042;-71
2023/09/25 05:43:05;;;;;;;70.00;66.90;;;11.50;88.80;;;;;;4988566;28;20165;-71
2023/09/25 05:45:31;;;;;;;60.93;57.93;;;11.50;88.80;;;;;;4994771;28;20125;-71
2023/09/25 05:47:57;;;;;;;67.03;64.20;;;11.50;88.80;;;;;;5008877;28;20045;-72
2023/09/25 05:50:26;;;;;;;77.93;74.63;;;11.50;88.70;;;;;;5009465;28;20684;-72
2023/09/25 05:52:52;;;;;;;65.77;62.83;;;11.50;88.80;;;;;;5000368;28;20498;-72
2023/09/25 05:55:18;;;;;;;69.83;66.83;;;11.50;88.80;;;;;;5011314;28;20356;-72
2023/09/25 05:57:44;;;;;;;76.30;72.93;;;11.50;88.60;;;;;;4990271;28;20041;-72
2023/09/25 06:00:16;;;;;;;74.47;71.27;;;11.60;88.60;;;;;;5010523;28;20291;-72
2023/09/25 06:02:42;;;;;;;65.77;62.97;;;11.60;88.50;;;;;;5001715;28;20136;-72
2023/09/25 06:05:09;;;;;;;70.70;67.57;;;11.60;88.50;;;;;;4988871;28;20362;-72
2023/09/25 06:07:35;;;;;;;78.33;74.97;;;11.70;88.20;;;;;;5007629;28;20368;-72
2023/09/25 06:10:04;;;;;;;81.53;78.03;;;11.80;88.20;;;;;;5011478;28;20701;-72
2023/09/25 06:12:30;;;;;;;75.50;72.07;;;11.80;88.00;;;;;;5007322;28;20125;-71
2023/09/25 06:14:55;;;;;;;80.70;77.30;;;11.80;88.00;;;;;;5006208;28;20650;-71
2023/09/25 06:17:21;;;;;;;76.70;73.37;;;11.90;87.90;;;;;;5013211;28;20437;-71
2023/09/25 06:19:47;;;;;;;75.50;72.23;;;11.90;87.80;;;;;;5000150;28;20048;-71
2023/09/25 06:22:13;;;;;;;70.83;67.67;;;11.90;87.80;;;;;;5009235;28;20084;-71
2023/09/25 06:24:38;;;;;;;73.53;70.30;;;12.00;87.50;;;;;;5011498;28;20042;-71
2023/09/25 06:27:04;;;;;;;78.10;74.47;;;12.00;87.40;;;;;;5003062;28;20443;-71
2023/09/25 06:29:31;;;;;;;82.87;78.87;;;12.10;87.30;;;;;;5006457;28;20088;-71
2023/09/25 06:31:57;;;;;;;131.87;125.73;;;12.10;87.10;;;;;;4984524;28;20280;-71
2023/09/25 06:34:22;;;;;;;67.37;64.30;;;12.20;86.90;;;;;;5003634;28;20293;-71
2023/09/25 06:36:48;;;;;;;71.07;68.13;;;12.20;86.80;;;;;;4991556;28;20041;-71
2023/09/25 06:39:14;;;;;;;74.77;71.43;;;12.30;86.60;;;;;;4994563;28;20053;-71
2023/09/25 06:41:41;;;;;;;68.40;65.33;;;12.30;86.50;;;;;;5007171;28;20042;-71
2023/09/25 06:44:07;;;;;;;64.20;61.43;;;12.30;86.30;;;;;;5007096;28;20060;-71
2023/09/25 06:46:33;;;;;;;69.80;66.87;;;12.40;86.30;;;;;;5022212;28;20285;-72
2023/09/25 06:49:02;;;;;;;78.67;74.97;;;12.40;85.90;;;;;;5009772;28;20038;-72
2023/09/25 06:51:29;;;;;;;68.50;65.50;;;12.50;86.20;;;;;;5019398;28;20637;-72
2023/09/25 06:53:55;;;;;;;72.90;69.70;;;12.50;85.70;;;;;;5013447;28;20320;-72
2023/09/25 06:56:21;;;;;;;70.30;67.27;;;12.50;85.80;;;;;;4997979;28;20728;-72
2023/09/25 06:58:47;;;;;;;75.67;72.53;;;12.60;85.50;;;;;;5007614;28;20041;-72
2023/09/25 07:01:12;;;;;;;80.13;76.73;;;12.60;85.60;;;;;;5018766;28;20073;-72
2023/09/25 07:03:38;;;;;;;156.33;147.03;;;12.70;85.30;;;;;;4999128;28;20042;-72
2023/09/25 07:06:04;;;;;;;89.00;85.17;;;12.70;84.60;;;;;;5006348;28;20085;-72
2023/09/25 07:08:30;;;;;;;86.30;82.53;;;12.80;84.80;;;;;;5014889;28;20100;-72
2023/09/25 07:11:00;;;;;;;103.30;98.67;;;12.80;84.70;;;;;;4992155;28;20052;-72
2023/09/25 07:13:27;;;;;;;91.13;87.43;;;12.90;84.50;;;;;;5002613;28;20327;-72
2023/09/25 07:16:02;;;;;;;90.80;87.10;;;12.90;84.50;;;;;;5004284;28;20297;-72
2023/09/25 07:18:29;;;;;;;;;;;13.00;84.30;;;;;;5006210;28;20824;-72
2023/09/25 07:20:54;;;;;;;130.73;124.53;;;13.10;84.00;;;;;;5009307;28;19995;-72
2023/09/25 07:23:20;;;;;;;114.00;109.17;;;13.10;83.50;;;;;;5003738;28;20331;-72
2023/09/25 07:25:46;;;;;;;109.50;104.90;;;13.20;83.40;;;;;;4985534;28;20549;-72
2023/09/25 07:28:11;;;;;;;109.13;104.67;;;13.30;83.50;;;;;;5000674;28;20079;-72
2023/09/25 07:30:44;;;;;;;110.13;105.33;;;13.30;83.20;;;;;;5000410;28;20124;-72
2023/09/25 07:33:11;;;;;;;106.03;101.67;;;13.40;83.10;;;;;;5029182;28;20064;-72
2023/09/25 07:35:37;;;;;;;108.00;103.37;;;13.50;82.60;;;;;;4992705;28;20358;-72
2023/09/25 07:38:03;;;;;;;107.80;103.20;;;13.50;82.40;;;;;;5018994;28;20291;-72
2023/09/25 07:40:29;;;;;;;126.23;120.73;;;13.60;82.30;;;;;;5013937;28;20281;-72
2023/09/25 07:42:55;;;;;;;112.63;108.03;;;13.60;82.20;;;;;;5006122;28;20309;-72
2023/09/25 07:45:25;;;;;;;123.90;118.73;;;13.70;81.60;;;;;;5007104;28;20034;-72
2023/09/25 07:47:52;;;;;;;122.27;117.17;;;13.70;81.60;;;;;;5030269;28;20042;-72
2023/09/25 07:50:19;;;;;;;128.83;123.53;;;13.80;81.10;;;;;;5025530;28;20288;-72
2023/09/25 07:52:45;;;;;;;136.80;130.90;;;13.80;80.90;;;;;;5005229;28;20372;-72
2023/09/25 07:55:11;;;;;;;112.07;107.47;;;13.80;80.70;;;;;;5000895;28;20852;-72
2023/09/25 07:57:42;;;;;;;115.93;111.23;;;13.80;80.50;;;;;;5007287;28;20037;-72
2023/09/25 08:00:25;;;;;;;121.40;116.33;;;13.90;81.10;;;;;;5018318;28;20290;-72
2023/09/25 08:02:52;;;;;;;119.10;114.17;;;14.00;80.90;;;;;;5028686;28;20303;-72
2023/09/25 08:05:19;;;;;;;136.20;130.70;;;14.10;80.50;;;;;;4999679;28;20374;-72
2023/09/25 08:07:49;;;;;;;124.63;119.33;;;14.10;80.60;;;;;;5005018;28;20309;-72
2023/09/25 08:10:17;;;;;;;136.40;130.70;;;14.20;79.70;;;;;;5006468;28;20293;-72
2023/09/25 08:12:43;;;;;;;133.60;128.20;;;14.30;80.10;;;;;;5008384;28;20835;-72
2023/09/25 08:15:10;;;;;;;144.53;138.57;;;14.40;79.90;;;;;;5004743;28;20664;-72
2023/09/25 08:17:37;;;;;;;173.53;166.17;;;14.50;79.60;;;;;;5007290;28;20281;-72
2023/09/25 08:20:13;;;;;;;148.90;142.83;;;14.60;79.20;;;;;;5001556;28;20316;-72
2023/09/25 08:22:41;;;;;;;148.93;142.87;;;14.70;79.00;;;;;;4991052;28;20288;-72
2023/09/25 08:25:08;;;;;;;155.13;148.70;;;14.70;78.70;;;;;;5008148;28;20287;-72
2023/09/25 08:27:35;;;;;;;164.60;157.90;;;14.80;79.00;;;;;;5021526;28;20337;-72
2023/09/25 08:30:01;;;;;;;236.63;226.13;;;14.90;78.60;;;;;;5005866;28;20312;-72
2023/09/25 08:32:27;;;;;;;180.17;172.80;;;15.00;78.20;;;;;;5004544;28;20375;-72
2023/09/25 08:34:52;;;;;;;193.17;185.17;;;15.10;77.90;;;;;;4992249;28;20796;-72
2023/09/25 08:37:18;;;;;;;201.10;192.93;;;15.20;77.50;;;;;;4995022;28;20395;-72
2023/09/25 08:39:44;;;;;;;206.80;198.07;;;15.30;77.60;;;;;;5004463;28;20103;-72
2023/09/25 08:42:10;;;;;;;206.93;198.53;;;15.40;77.90;;;;;;5008300;28;20073;-72
2023/09/25 08:44:37;;;;;;;209.83;201.43;;;15.40;77.50;;;;;;5007296;28;20049;-72
2023/09/25 08:47:03;;;;;;;216.63;207.97;;;15.50;77.30;;;;;;5007682;28;20117;-72
2023/09/25 08:49:31;;;;;;;205.23;196.77;;;15.60;77.50;;;;;;5018717;28;20355;-72
2023/09/25 08:51:57;;;;;;;222.70;213.57;;;15.70;77.10;;;;;;5014163;28;20038;-72
2023/09/25 08:54:23;;;;;;;215.80;207.10;;;15.90;76.30;;;;;;5003320;28;20702;-72
2023/09/25 08:56:49;;;;;;;245.23;235.33;;;16.00;76.20;;;;;;5004223;28;20068;-72
2023/09/25 08:59:15;;;;;;;242.73;232.33;;;16.10;76.20;;;;;;5010919;28;20056;-72
2023/09/25 09:01:42;;;;;;;233.57;224.30;;;16.20;76.10;;;;;;5015050;28;20330;-72
2023/09/25 09:04:09;;;;;;;249.83;239.63;;;16.30;75.20;;;;;;5009229;28;20304;-72
2023/09/25 09:06:35;;;;;;;259.00;248.70;;;16.40;75.60;;;;;;5001802;28;20292;-72
2023/09/25 09:09:01;;;;;;;278.40;267.07;;;16.60;75.20;;;;;;5003157;28;20329;-72
2023/09/25 09:11:27;;;;;;;254.40;243.60;;;16.70;75.50;;;;;;4992850;28;20368;-72
2023/09/25 09:13:53;;;;;;;313.70;299.97;;;16.90;75.20;;;;;;4994174;28;20050;-72
2023/09/25 09:16:19;;;;;;;279.17;267.17;;;17.00;74.10;;;;;;4979482;28;20100;-72
2023/09/25 09:18:46;;;;;;;296.87;284.50;;;17.10;73.40;;;;;;4990346;28;20046;-72
2023/09/25 09:21:24;;;;;;;307.43;294.20;;;17.20;73.40;;;;;;4991535;28;20281;-72
2023/09/25 09:23:50;;;;;;;269.73;258.83;;;17.30;73.00;;;;;;5004384;28;20828;-72
2023/09/25 09:26:16;;;;;;;297.77;284.43;;;17.40;72.50;;;;;;5008690;28;20284;-72
2023/09/25 09:28:46;;;;;;;292.37;280.27;;;17.50;71.50;;;;;;5007425;28;20280;-72
2023/09/25 09:31:14;;;;;;;292.67;280.53;;;17.60;71.70;;;;;;5028763;28;20284;-72
2023/09/25 09:33:44;;;;;;;269.30;258.20;;;17.80;72.20;;;;;;5007198;28;20382;-72
2023/09/25 09:36:10;;;;;;;284.70;272.80;;;17.80;70.80;;;;;;5006898;28;20287;-72
2023/09/25 09:38:37;;;;;;;305.10;291.50;;;17.80;70.20;;;;;;4998004;28;20297;-72
2023/09/25 09:41:07;;;;;;;254.50;243.33;;;17.80;70.30;;;;;;4988814;28;20291;-72
2023/09/25 09:43:33;;;;;;;247.73;237.63;;;17.70;70.40;;;;;;4988649;28;20320;-72
2023/09/25 09:46:00;;;;;;;274.10;262.77;;;17.70;70.60;;;;;;5005872;28;20287;-72
2023/09/25 09:48:29;;;;;;;250.07;239.67;;;17.70;71.30;;;;;;5027563;28;20275;-72
2023/09/25 09:51:02;;;;;;;259.63;248.90;;;17.80;71.80;;;;;;5017863;28;20293;-72
2023/09/25 09:53:28;;;;;;;253.70;243.20;;;17.90;70.10;;;;;;5021836;28;20280;-72
2023/09/25 09:55:58;;;;;;;311.80;296.83;;;17.90;69.60;;;;;;5017747;28;20772;-72
2023/09/25 09:58:26;;;;;;;281.30;269.73;;;17.90;69.20;;;;;;5020562;28;20367;-72
2023/09/25 10:00:54;;;;;;;272.07;260.57;;;18.00;69.10;;;;;;5001470;28;20289;-72
2023/09/25 10:03:20;;;;;;;294.80;281.50;;;18.10;69.70;;;;;;5019198;28;20297;-71
2023/09/25 10:05:50;;;;;;;283.00;270.50;;;18.20;68.50;;;;;;5018597;28;20296;-72
2023/09/25 10:08:21;;;;;;;302.27;289.10;;;18.30;68.20;;;;;;5009772;28;20281;-72
2023/09/25 10:10:51;;;;;;;266.90;255.70;;;18.30;67.60;;;;;;4992145;28;20359;-72
2023/09/25 10:13:26;;;;;;;303.10;290.03;;;18.40;68.00;;;;;;5002848;28;20132;-72
2023/09/25 10:15:56;;;;;;;270.48;259.27;;;18.50;68.30;;;;;;5008925;28;20354;-72
2023/09/25 10:18:22;;;;;;;290.17;278.30;;;18.60;67.80;;;;;;5010680;28;20038;-72
2023/09/25 10:20:48;;;;;;;306.73;293.87;;;18.60;68.00;;;;;;5008691;28;20397;-72
2023/09/25 10:23:25;;;;;;;301.33;288.57;;;18.70;68.00;;;;;;4992655;28;20184;-72
2023/09/25 10:25:54;;;;;;;316.63;303.13;;;18.80;68.10;;;;;;5023563;28;20520;-72
2023/09/25 10:28:37;;;;;;;306.63;293.93;;;18.80;66.90;;;;;;5011573;28;20042;-72
2023/09/25 10:31:05;;;;;;;316.60;303.40;;;18.90;67.40;;;;;;5006105;28;20034;-72
2023/09/25 10:33:37;;;;;;;341.40;326.93;;;19.00;67.70;;;;;;5006341;28;20125;-72
2023/09/25 10:36:04;;;;;;;320.50;306.90;;;19.10;67.90;;;;;;5019091;28;20045;-72
2023/09/25 10:38:36;;;;;;;340.83;326.03;;;19.30;68.00;;;;;;4993425;28;20049;-72
2023/09/25 10:41:08;;;;;;;331.03;316.93;;;19.40;68.00;;;;;;5007701;28;20046;-72
2023/09/25 10:43:35;;;;;;;335.57;321.53;;;19.60;66.90;;;;;;5010696;28;20528;-72
2023/09/25 10:46:02;;;;;;;326.07;312.23;;;19.80;66.70;;;;;;5004049;28;20065;-72
2023/09/25 10:48:28;;;;;;;359.40;343.90;;;19.90;66.20;;;;;;4997563;28;20042;-72
2023/09/25 10:50:54;;;;;;;368.13;351.77;;;19.90;65.30;;;;;;5020582;28;20238;-72
2023/09/25 10:53:21;;;;;;;358.67;342.77;;;19.90;65.70;;;;;;5015477;28;20178;-72
2023/09/25 10:55:48;;;;;;;373.90;357.67;;;20.00;66.00;;;;;;5024755;28;20068;-72
2023/09/25 10:58:23;;;;;;;355.33;340.17;;;20.10;65.70;;;;;;4996529;28;20048;-72
2023/09/25 11:00:52;;;;;;;;;;;20.30;65.00;;;;;;5011270;28;20042;-72
2023/09/25 11:03:18;;;;;;;333.00;319.03;;;20.40;64.10;;;;;;4996483;28;19921;-72
2023/09/25 11:05:45;;;;;;;465.90;444.83;;;20.50;65.60;;;;;;5005610;28;20050;-72
2023/09/25 11:08:15;;;;;;;436.00;416.47;;;20.60;64.50;;;;;;4989674;28;20046;-72
2023/09/25 11:10:41;;;;;;;494.10;471.67;;;20.60;63.50;;;;;;4997667;28;20108;-72
2023/09/25 11:13:08;;;;;;;509.07;485.47;;;20.60;63.20;;;;;;4979039;28;20478;-72
2023/09/25 11:15:38;;;;;;;501.77;478.40;;;20.60;63.80;;;;;;5002362;28;20054;-72
2023/09/25 11:18:08;;;;;;;523.07;498.57;;;20.60;63.30;;;;;;4990226;28;20525;-72
2023/09/25 11:20:34;;;;;;;498.07;474.90;;;20.60;64.30;;;;;;5006070;28;20428;-72
2023/09/25 11:23:09;;;;;;;542.20;515.80;;;20.70;64.00;;;;;;5009998;28;20130;-72
2023/09/25 11:25:46;;;;;;;520.43;496.07;;;20.70;63.40;;;;;;5009327;28;20370;-72
2023/09/25 11:28:14;;;;;;;477.17;455.53;;;20.60;63.50;;;;;;5009913;28;20038;-72
2023/09/25 11:30:41;;;;;;;517.93;493.40;;;20.50;63.70;;;;;;4999819;28;20046;-72
2023/09/25 11:33:11;;;;;;;516.20;491.67;;;20.40;63.80;;;;;;5014524;28;20045;-72
2023/09/25 11:35:37;;;;;;;501.10;478.20;;;20.30;63.20;;;;;;5010987;28;20045;-72
2023/09/25 11:38:24;;;;;;;527.47;502.67;;;20.20;63.90;;;;;;5022385;28;20103;-72
2023/09/25 11:40:52;;;;;;;527.57;502.80;;;20.10;64.70;;;;;;4984753;28;20509;-72
2023/09/25 11:43:18;;;;;;;518.73;494.30;;;20.20;65.20;;;;;;5004274;28;20046;-72
2023/09/25 11:45:44;;;;;;;548.20;522.30;;;20.30;64.90;;;;;;4999627;28;20045;-72
2023/09/25 11:48:11;;;;;;;553.10;526.27;;;20.40;65.20;;;;;;5010429;28;20568;-72
2023/09/25 11:50:39;;;;;;;554.47;527.67;;;20.50;65.10;;;;;;5017510;28;20044;-72
2023/09/25 11:53:06;;;;;;;583.70;553.53;;;20.60;65.00;;;;;;5001184;28;20084;-72
2023/09/25 11:55:32;;;;;;;544.50;518.40;;;20.70;64.40;;;;;;4992000;28;20049;-72
2023/09/25 11:57:58;;;;;;;557.37;530.53;;;20.60;64.70;;;;;;5013795;28;20096;-72
2023/09/25 12:00:27;;;;;;;583.30;554.63;;;20.60;64.50;;;;;;4991692;28;20041;-72
2023/09/25 12:02:54;;;;;;;558.23;531.67;;;20.80;65.00;;;;;;5020110;28;20049;-72
2023/09/25 12:05:20;;;;;;;549.97;523.63;;;21.10;64.80;;;;;;4992588;28;20033;-72
2023/09/25 12:07:47;;;;;;;574.47;546.87;;;21.20;64.10;;;;;;5028271;28;20042;-72
2023/09/25 12:10:18;;;;;;;581.57;552.63;;;21.40;64.30;;;;;;4994607;28;20524;-72
2023/09/25 12:12:45;;;;;;;619.93;587.03;;;21.50;63.80;;;;;;4990426;28;20077;-72
2023/09/25 12:15:15;;;;;;;631.97;599.23;;;21.60;62.40;;;;;;4994076;28;20050;-72
2023/09/25 12:17:41;;;;;;;614.17;582.33;;;21.70;62.90;;;;;;4990420;28;20049;-72
2023/09/25 12:20:14;;;;;;;496.47;472.63;;;21.70;62.50;;;;;;4989381;28;20125;-72